sensor_id;sensor_type;location;lat;lon;timestamp;P1;durP1;ratioP1;P2;durP2;ratioP2
22705;SDS011;11520;51.198;4.468;2023-03-03T00:01:04;44.40;;;21.83;;
22705;SDS011;11520;51.198;4.468;2023-03-03T00:03:30;44.22;;;22.63;;
22705;SDS011;11520;51.198;4.468;2023-03-03T00:05:56;41.75;;;21.75;;
22705;SDS011;11520;51.198;4.468;2023-03-03T00:08:22;40.60;;;20.85;;
22705;SDS011;11520;51.198;4.468;2023-03-03T00:10:50;42.70;;;21.08;;
22705;SDS011;11520;51.198;4.468;2023-03-03T00:13:23;40.70;;;21.77;;
22705;SDS011;11520;51.198;4.468;2023-03-03T00:15:52;46.55;;;22.65;;
22705;SDS011;11520;51.198;4.468;2023-03-03T00:18:32;42.50;;;21.17;;
22705;SDS011;11520;51.198;4.468;2023-03-03T00:21:00;45.55;;;22.25;;
22705;SDS011;11520;51.198;4.468;2023-03-03T00:23:38;44.63;;;22.67;;
22705;SDS011;11520;51.198;4.468;2023-03-03T00:28:56;44.95;;;22.20;;
22705;SDS011;11520;51.198;4.468;2023-03-03T00:31:32;40.88;;;20.60;;
22705;SDS011;11520;51.198;4.468;2023-03-03T00:36:54;45.72;;;23.15;;
22705;SDS011;11520;51.198;4.468;2023-03-03T00:41:56;43.20;;;22.88;;
22705;SDS011;11520;51.198;4.468;2023-03-03T00:50:33;45.60;;;22.20;;
22705;SDS011;11520;51.198;4.468;2023-03-03T00:53:10;47.85;;;22.95;;
22705;SDS011;11520;51.198;4.468;2023-03-03T00:55:38;44.75;;;23.85;;
22705;SDS011;11520;51.198;4.468;2023-03-03T00:58:05;44.83;;;22.88;;
22705;SDS011;11520;51.198;4.468;2023-03-03T01:00:34;43.55;;;23.85;;
22705;SDS011;11520;51.198;4.468;2023-03-03T01:03:02;47.50;;;23.48;;
22705;SDS011;11520;51.198;4.468;2023-03-03T01:05:29;49.20;;;25.15;;
22705;SDS011;11520;51.198;4.468;2023-03-03T01:07:56;47.30;;;24.23;;
22705;SDS011;11520;51.198;4.468;2023-03-03T01:10:45;49.33;;;24.83;;
22705;SDS011;11520;51.198;4.468;2023-03-03T01:13:16;50.75;;;25.27;;
22705;SDS011;11520;51.198;4.468;2023-03-03T01:15:43;48.45;;;25.33;;
22705;SDS011;11520;51.198;4.468;2023-03-03T01:18:09;49.75;;;24.50;;
22705;SDS011;11520;51.198;4.468;2023-03-03T01:20:37;47.92;;;24.23;;
22705;SDS011;11520;51.198;4.468;2023-03-03T01:23:03;44.38;;;24.98;;
22705;SDS011;11520;51.198;4.468;2023-03-03T01:25:29;48.15;;;24.67;;
22705;SDS011;11520;51.198;4.468;2023-03-03T01:27:55;50.22;;;25.20;;
22705;SDS011;11520;51.198;4.468;2023-03-03T01:30:21;50.58;;;25.35;;
22705;SDS011;11520;51.198;4.468;2023-03-03T01:32:47;45.00;;;23.58;;
22705;SDS011;11520;51.198;4.468;2023-03-03T01:35:13;52.38;;;26.23;;
22705;SDS011;11520;51.198;4.468;2023-03-03T01:37:39;51.60;;;25.95;;
22705;SDS011;11520;51.198;4.468;2023-03-03T01:40:38;51.00;;;25.85;;
22705;SDS011;11520;51.198;4.468;2023-03-03T01:43:00;52.60;;;25.45;;
22705;SDS011;11520;51.198;4.468;2023-03-03T01:45:27;51.45;;;25.70;;
22705;SDS011;11520;51.198;4.468;2023-03-03T01:48:05;51.85;;;25.10;;
22705;SDS011;11520;51.198;4.468;2023-03-03T01:53:10;49.45;;;25.58;;
22705;SDS011;11520;51.198;4.468;2023-03-03T01:55:40;51.95;;;25.52;;
22705;SDS011;11520;51.198;4.468;2023-03-03T01:58:08;48.88;;;25.15;;
22705;SDS011;11520;51.198;4.468;2023-03-03T02:00:39;53.80;;;25.90;;
22705;SDS011;11520;51.198;4.468;2023-03-03T02:03:08;49.75;;;24.80;;
22705;SDS011;11520;51.198;4.468;2023-03-03T02:05:34;53.30;;;25.25;;
22705;SDS011;11520;51.198;4.468;2023-03-03T02:08:01;55.75;;;26.30;;
22705;SDS011;11520;51.198;4.468;2023-03-03T02:10:28;53.25;;;25.85;;
22705;SDS011;11520;51.198;4.468;2023-03-03T02:12:58;49.20;;;26.20;;
22705;SDS011;11520;51.198;4.468;2023-03-03T02:15:26;62.50;;;27.65;;
22705;SDS011;11520;51.198;4.468;2023-03-03T02:18:13;54.40;;;27.55;;
22705;SDS011;11520;51.198;4.468;2023-03-03T02:20:55;51.55;;;26.17;;
22705;SDS011;11520;51.198;4.468;2023-03-03T02:26:13;55.30;;;26.40;;
22705;SDS011;11520;51.198;4.468;2023-03-03T02:28:41;60.45;;;28.48;;
22705;SDS011;11520;51.198;4.468;2023-03-03T02:31:09;53.65;;;27.25;;
22705;SDS011;11520;51.198;4.468;2023-03-03T02:33:39;62.53;;;29.08;;
22705;SDS011;11520;51.198;4.468;2023-03-03T02:36:09;62.67;;;29.40;;
22705;SDS011;11520;51.198;4.468;2023-03-03T02:38:44;53.83;;;27.70;;
22705;SDS011;11520;51.198;4.468;2023-03-03T02:46:41;59.15;;;29.40;;
22705;SDS011;11520;51.198;4.468;2023-03-03T02:49:10;61.47;;;30.25;;
22705;SDS011;11520;51.198;4.468;2023-03-03T02:51:37;60.63;;;29.10;;
22705;SDS011;11520;51.198;4.468;2023-03-03T02:54:05;64.20;;;30.63;;
22705;SDS011;11520;51.198;4.468;2023-03-03T02:56:33;64.25;;;31.50;;
22705;SDS011;11520;51.198;4.468;2023-03-03T02:59:00;63.10;;;31.23;;
22705;SDS011;11520;51.198;4.468;2023-03-03T03:01:26;61.72;;;29.13;;
22705;SDS011;11520;51.198;4.468;2023-03-03T03:03:52;64.20;;;30.38;;
22705;SDS011;11520;51.198;4.468;2023-03-03T03:06:17;63.20;;;30.75;;
22705;SDS011;11520;51.198;4.468;2023-03-03T03:08:43;60.17;;;30.50;;
22705;SDS011;11520;51.198;4.468;2023-03-03T03:11:11;62.33;;;30.67;;
22705;SDS011;11520;51.198;4.468;2023-03-03T03:13:37;60.38;;;30.17;;
22705;SDS011;11520;51.198;4.468;2023-03-03T03:16:03;65.07;;;31.60;;
22705;SDS011;11520;51.198;4.468;2023-03-03T03:18:29;58.58;;;29.42;;
22705;SDS011;11520;51.198;4.468;2023-03-03T03:20:55;55.88;;;29.23;;
22705;SDS011;11520;51.198;4.468;2023-03-03T03:23:22;58.75;;;29.63;;
22705;SDS011;11520;51.198;4.468;2023-03-03T03:25:48;55.17;;;27.67;;
22705;SDS011;11520;51.198;4.468;2023-03-03T03:28:15;55.67;;;28.77;;
22705;SDS011;11520;51.198;4.468;2023-03-03T03:30:42;52.38;;;28.20;;
22705;SDS011;11520;51.198;4.468;2023-03-03T03:33:09;54.15;;;27.27;;
22705;SDS011;11520;51.198;4.468;2023-03-03T03:35:35;53.15;;;27.80;;
22705;SDS011;11520;51.198;4.468;2023-03-03T03:38:02;50.40;;;27.02;;
22705;SDS011;11520;51.198;4.468;2023-03-03T03:40:29;53.70;;;28.25;;
22705;SDS011;11520;51.198;4.468;2023-03-03T03:42:54;53.70;;;27.85;;
22705;SDS011;11520;51.198;4.468;2023-03-03T03:45:21;49.60;;;26.30;;
22705;SDS011;11520;51.198;4.468;2023-03-03T03:47:46;49.80;;;26.20;;
22705;SDS011;11520;51.198;4.468;2023-03-03T03:50:12;50.33;;;26.83;;
22705;SDS011;11520;51.198;4.468;2023-03-03T03:52:38;51.72;;;27.00;;
22705;SDS011;11520;51.198;4.468;2023-03-03T03:55:04;55.08;;;27.73;;
22705;SDS011;11520;51.198;4.468;2023-03-03T03:57:30;52.47;;;27.55;;
22705;SDS011;11520;51.198;4.468;2023-03-03T03:59:55;48.65;;;26.45;;
22705;SDS011;11520;51.198;4.468;2023-03-03T04:02:21;49.05;;;26.15;;
22705;SDS011;11520;51.198;4.468;2023-03-03T04:04:48;46.67;;;25.88;;
22705;SDS011;11520;51.198;4.468;2023-03-03T04:07:15;47.15;;;26.23;;
22705;SDS011;11520;51.198;4.468;2023-03-03T04:09:41;45.95;;;24.60;;
22705;SDS011;11520;51.198;4.468;2023-03-03T04:12:06;46.85;;;25.33;;
22705;SDS011;11520;51.198;4.468;2023-03-03T04:14:32;50.95;;;25.75;;
22705;SDS011;11520;51.198;4.468;2023-03-03T04:16:58;49.50;;;25.33;;
22705;SDS011;11520;51.198;4.468;2023-03-03T04:19:23;54.17;;;26.58;;
22705;SDS011;11520;51.198;4.468;2023-03-03T04:21:50;50.92;;;24.40;;
22705;SDS011;11520;51.198;4.468;2023-03-03T04:24:17;51.38;;;27.65;;
22705;SDS011;11520;51.198;4.468;2023-03-03T04:26:44;49.78;;;25.95;;
22705;SDS011;11520;51.198;4.468;2023-03-03T04:29:10;53.28;;;26.52;;
22705;SDS011;11520;51.198;4.468;2023-03-03T04:31:35;51.88;;;27.00;;
22705;SDS011;11520;51.198;4.468;2023-03-03T04:34:01;56.20;;;28.30;;
22705;SDS011;11520;51.198;4.468;2023-03-03T04:36:28;57.80;;;27.60;;
22705;SDS011;11520;51.198;4.468;2023-03-03T04:38:53;53.63;;;27.63;;
22705;SDS011;11520;51.198;4.468;2023-03-03T04:41:19;58.80;;;26.70;;
22705;SDS011;11520;51.198;4.468;2023-03-03T04:43:45;53.92;;;27.45;;
22705;SDS011;11520;51.198;4.468;2023-03-03T04:46:10;63.67;;;30.35;;
22705;SDS011;11520;51.198;4.468;2023-03-03T04:48:37;56.78;;;27.10;;
22705;SDS011;11520;51.198;4.468;2023-03-03T04:51:03;57.30;;;27.67;;
22705;SDS011;11520;51.198;4.468;2023-03-03T04:53:29;56.13;;;26.92;;
22705;SDS011;11520;51.198;4.468;2023-03-03T04:55:55;58.60;;;27.58;;
22705;SDS011;11520;51.198;4.468;2023-03-03T04:58:21;55.92;;;27.02;;
22705;SDS011;11520;51.198;4.468;2023-03-03T05:00:51;60.60;;;29.08;;
22705;SDS011;11520;51.198;4.468;2023-03-03T05:03:18;58.35;;;29.42;;
22705;SDS011;11520;51.198;4.468;2023-03-03T05:05:46;60.83;;;29.33;;
22705;SDS011;11520;51.198;4.468;2023-03-03T05:08:12;61.47;;;28.73;;
22705;SDS011;11520;51.198;4.468;2023-03-03T05:10:42;60.80;;;29.13;;
22705;SDS011;11520;51.198;4.468;2023-03-03T05:13:08;61.13;;;28.25;;
22705;SDS011;11520;51.198;4.468;2023-03-03T05:15:35;60.15;;;27.63;;
22705;SDS011;11520;51.198;4.468;2023-03-03T05:18:03;59.45;;;27.98;;
22705;SDS011;11520;51.198;4.468;2023-03-03T05:20:30;56.58;;;27.20;;
22705;SDS011;11520;51.198;4.468;2023-03-03T05:22:57;54.60;;;27.83;;
22705;SDS011;11520;51.198;4.468;2023-03-03T05:25:25;52.03;;;26.45;;
22705;SDS011;11520;51.198;4.468;2023-03-03T05:27:54;54.58;;;26.63;;
22705;SDS011;11520;51.198;4.468;2023-03-03T05:30:20;58.05;;;27.13;;
22705;SDS011;11520;51.198;4.468;2023-03-03T05:32:45;51.83;;;25.25;;
22705;SDS011;11520;51.198;4.468;2023-03-03T05:35:11;58.70;;;26.50;;
22705;SDS011;11520;51.198;4.468;2023-03-03T05:37:39;56.83;;;25.25;;
22705;SDS011;11520;51.198;4.468;2023-03-03T05:40:14;49.78;;;24.42;;
22705;SDS011;11520;51.198;4.468;2023-03-03T05:42:43;46.17;;;24.52;;
22705;SDS011;11520;51.198;4.468;2023-03-03T05:45:09;49.10;;;24.17;;
22705;SDS011;11520;51.198;4.468;2023-03-03T05:47:36;49.78;;;24.38;;
22705;SDS011;11520;51.198;4.468;2023-03-03T05:50:04;49.00;;;24.00;;
22705;SDS011;11520;51.198;4.468;2023-03-03T05:52:30;47.95;;;22.73;;
22705;SDS011;11520;51.198;4.468;2023-03-03T05:54:56;46.35;;;22.38;;
22705;SDS011;11520;51.198;4.468;2023-03-03T05:57:21;42.72;;;21.60;;
22705;SDS011;11520;51.198;4.468;2023-03-03T05:59:47;45.53;;;23.30;;
22705;SDS011;11520;51.198;4.468;2023-03-03T06:02:13;44.65;;;22.70;;
22705;SDS011;11520;51.198;4.468;2023-03-03T06:04:41;41.65;;;21.13;;
22705;SDS011;11520;51.198;4.468;2023-03-03T06:07:07;39.10;;;20.00;;
22705;SDS011;11520;51.198;4.468;2023-03-03T06:09:33;43.15;;;20.95;;
22705;SDS011;11520;51.198;4.468;2023-03-03T06:11:58;40.15;;;20.60;;
22705;SDS011;11520;51.198;4.468;2023-03-03T06:14:25;37.65;;;19.42;;
22705;SDS011;11520;51.198;4.468;2023-03-03T06:16:52;45.03;;;20.50;;
22705;SDS011;11520;51.198;4.468;2023-03-03T06:19:17;38.33;;;18.65;;
22705;SDS011;11520;51.198;4.468;2023-03-03T06:21:43;35.47;;;18.25;;
22705;SDS011;11520;51.198;4.468;2023-03-03T06:24:09;33.33;;;17.50;;
22705;SDS011;11520;51.198;4.468;2023-03-03T06:26:34;34.92;;;18.15;;
22705;SDS011;11520;51.198;4.468;2023-03-03T06:29:00;34.65;;;17.05;;
22705;SDS011;11520;51.198;4.468;2023-03-03T06:31:27;35.80;;;17.60;;
22705;SDS011;11520;51.198;4.468;2023-03-03T06:33:53;37.83;;;18.83;;
22705;SDS011;11520;51.198;4.468;2023-03-03T06:36:18;36.83;;;18.05;;
22705;SDS011;11520;51.198;4.468;2023-03-03T06:38:45;35.10;;;17.58;;
22705;SDS011;11520;51.198;4.468;2023-03-03T06:41:11;33.28;;;16.90;;
22705;SDS011;11520;51.198;4.468;2023-03-03T06:43:38;32.67;;;16.75;;
22705;SDS011;11520;51.198;4.468;2023-03-03T06:46:04;31.67;;;17.02;;
22705;SDS011;11520;51.198;4.468;2023-03-03T06:48:30;31.17;;;15.85;;
22705;SDS011;11520;51.198;4.468;2023-03-03T06:50:57;30.00;;;16.33;;
22705;SDS011;11520;51.198;4.468;2023-03-03T06:53:24;33.80;;;17.52;;
22705;SDS011;11520;51.198;4.468;2023-03-03T06:55:53;30.48;;;15.27;;
22705;SDS011;11520;51.198;4.468;2023-03-03T06:58:22;33.03;;;16.20;;
22705;SDS011;11520;51.198;4.468;2023-03-03T07:00:57;32.30;;;16.23;;
22705;SDS011;11520;51.198;4.468;2023-03-03T07:03:24;31.27;;;16.35;;
22705;SDS011;11520;51.198;4.468;2023-03-03T07:05:53;33.58;;;16.80;;
22705;SDS011;11520;51.198;4.468;2023-03-03T07:08:21;32.08;;;16.42;;
22705;SDS011;11520;51.198;4.468;2023-03-03T07:10:49;32.22;;;17.13;;
22705;SDS011;11520;51.198;4.468;2023-03-03T07:13:22;34.20;;;17.38;;
22705;SDS011;11520;51.198;4.468;2023-03-03T07:15:54;32.78;;;16.58;;
22705;SDS011;11520;51.198;4.468;2023-03-03T07:23:59;32.60;;;16.30;;
22705;SDS011;11520;51.198;4.468;2023-03-03T07:26:32;32.00;;;15.52;;
22705;SDS011;11520;51.198;4.468;2023-03-03T07:29:00;31.05;;;16.77;;
22705;SDS011;11520;51.198;4.468;2023-03-03T07:36:57;35.28;;;17.30;;
22705;SDS011;11520;51.198;4.468;2023-03-03T07:39:44;36.67;;;17.77;;
22705;SDS011;11520;51.198;4.468;2023-03-03T07:42:17;33.47;;;16.92;;
22705;SDS011;11520;51.198;4.468;2023-03-03T07:49:49;38.72;;;19.00;;
22705;SDS011;11520;51.198;4.468;2023-03-03T07:52:19;37.03;;;18.38;;
22705;SDS011;11520;51.198;4.468;2023-03-03T07:54:51;37.42;;;18.80;;
22705;SDS011;11520;51.198;4.468;2023-03-03T07:59:52;36.42;;;17.73;;
22705;SDS011;11520;51.198;4.468;2023-03-03T08:08:10;36.65;;;18.10;;
22705;SDS011;11520;51.198;4.468;2023-03-03T08:15:41;41.08;;;17.05;;
22705;SDS011;11520;51.198;4.468;2023-03-03T08:18:16;42.92;;;16.58;;
22705;SDS011;11520;51.198;4.468;2023-03-03T08:20:51;33.85;;;17.58;;
22705;SDS011;11520;51.198;4.468;2023-03-03T08:23:20;32.45;;;16.42;;
22705;SDS011;11520;51.198;4.468;2023-03-03T08:25:46;32.67;;;16.27;;
22705;SDS011;11520;51.198;4.468;2023-03-03T08:28:13;33.83;;;16.17;;
22705;SDS011;11520;51.198;4.468;2023-03-03T08:30:39;33.70;;;15.60;;
22705;SDS011;11520;51.198;4.468;2023-03-03T08:33:05;32.05;;;15.98;;
22705;SDS011;11520;51.198;4.468;2023-03-03T08:35:33;31.08;;;14.52;;
22705;SDS011;11520;51.198;4.468;2023-03-03T08:37:58;30.85;;;14.85;;
22705;SDS011;11520;51.198;4.468;2023-03-03T08:40:25;29.85;;;15.00;;
22705;SDS011;11520;51.198;4.468;2023-03-03T08:42:51;31.52;;;15.57;;
22705;SDS011;11520;51.198;4.468;2023-03-03T08:45:18;30.15;;;15.40;;
22705;SDS011;11520;51.198;4.468;2023-03-03T08:47:46;32.90;;;15.20;;
22705;SDS011;11520;51.198;4.468;2023-03-03T08:50:12;38.70;;;16.00;;
22705;SDS011;11520;51.198;4.468;2023-03-03T08:52:38;30.17;;;15.18;;
22705;SDS011;11520;51.198;4.468;2023-03-03T08:55:04;29.95;;;13.65;;
22705;SDS011;11520;51.198;4.468;2023-03-03T08:57:30;27.50;;;14.00;;
22705;SDS011;11520;51.198;4.468;2023-03-03T08:59:56;32.45;;;14.88;;
22705;SDS011;11520;51.198;4.468;2023-03-03T09:02:22;28.00;;;13.48;;
22705;SDS011;11520;51.198;4.468;2023-03-03T09:04:49;24.25;;;12.65;;
22705;SDS011;11520;51.198;4.468;2023-03-03T09:07:15;27.45;;;13.38;;
22705;SDS011;11520;51.198;4.468;2023-03-03T09:09:42;29.15;;;12.95;;
22705;SDS011;11520;51.198;4.468;2023-03-03T09:12:18;30.00;;;12.82;;
22705;SDS011;11520;51.198;4.468;2023-03-03T09:14:46;27.92;;;12.43;;
22705;SDS011;11520;51.198;4.468;2023-03-03T09:17:29;26.88;;;12.68;;
22705;SDS011;11520;51.198;4.468;2023-03-03T09:20:01;30.55;;;12.23;;
22705;SDS011;11520;51.198;4.468;2023-03-03T09:22:57;35.20;;;13.82;;
22705;SDS011;11520;51.198;4.468;2023-03-03T09:25:33;27.80;;;13.07;;
22705;SDS011;11520;51.198;4.468;2023-03-03T09:28:02;28.60;;;13.65;;
22705;SDS011;11520;51.198;4.468;2023-03-03T09:30:43;33.22;;;14.95;;
22705;SDS011;11520;51.198;4.468;2023-03-03T09:35:53;31.13;;;15.85;;
22705;SDS011;11520;51.198;4.468;2023-03-03T09:38:31;28.15;;;14.23;;
22705;SDS011;11520;51.198;4.468;2023-03-03T09:41:09;34.22;;;15.00;;
22705;SDS011;11520;51.198;4.468;2023-03-03T09:49:38;26.60;;;13.98;;
22705;SDS011;11520;51.198;4.468;2023-03-03T09:55:05;28.30;;;13.48;;
22705;SDS011;11520;51.198;4.468;2023-03-03T10:11:40;28.10;;;14.10;;
22705;SDS011;11520;51.198;4.468;2023-03-03T10:24:42;25.95;;;12.85;;
22705;SDS011;11520;51.198;4.468;2023-03-03T10:30:17;23.77;;;11.98;;
22705;SDS011;11520;51.198;4.468;2023-03-03T10:32:57;24.70;;;11.93;;
22705;SDS011;11520;51.198;4.468;2023-03-03T10:48:56;23.80;;;11.82;;
22705;SDS011;11520;51.198;4.468;2023-03-03T10:54:48;25.88;;;11.95;;
22705;SDS011;11520;51.198;4.468;2023-03-03T11:00:26;22.27;;;11.55;;
22705;SDS011;11520;51.198;4.468;2023-03-03T11:05:59;24.35;;;11.77;;
22705;SDS011;11520;51.198;4.468;2023-03-03T11:08:27;21.15;;;10.85;;
22705;SDS011;11520;51.198;4.468;2023-03-03T11:33:35;20.77;;;8.55;;
22705;SDS011;11520;51.198;4.468;2023-03-03T11:36:17;24.45;;;9.63;;
22705;SDS011;11520;51.198;4.468;2023-03-03T11:44:28;17.15;;;8.35;;
22705;SDS011;11520;51.198;4.468;2023-03-03T11:47:03;15.95;;;8.70;;
22705;SDS011;11520;51.198;4.468;2023-03-03T11:49:40;17.85;;;8.18;;
22705;SDS011;11520;51.198;4.468;2023-03-03T11:52:24;16.02;;;8.52;;
22705;SDS011;11520;51.198;4.468;2023-03-03T11:55:08;12.70;;;7.10;;
22705;SDS011;11520;51.198;4.468;2023-03-03T11:57:48;11.40;;;6.63;;
22705;SDS011;11520;51.198;4.468;2023-03-03T12:02:55;16.05;;;7.68;;
22705;SDS011;11520;51.198;4.468;2023-03-03T12:13:45;12.35;;;6.78;;
22705;SDS011;11520;51.198;4.468;2023-03-03T12:26:50;11.65;;;6.57;;
22705;SDS011;11520;51.198;4.468;2023-03-03T12:29:46;10.57;;;5.95;;
22705;SDS011;11520;51.198;4.468;2023-03-03T12:48:57;10.63;;;6.25;;
22705;SDS011;11520;51.198;4.468;2023-03-03T12:51:29;10.73;;;5.68;;
22705;SDS011;11520;51.198;4.468;2023-03-03T12:59:46;8.82;;;5.22;;
22705;SDS011;11520;51.198;4.468;2023-03-03T13:07:33;11.48;;;6.28;;
22705;SDS011;11520;51.198;4.468;2023-03-03T13:10:17;12.43;;;5.95;;
22705;SDS011;11520;51.198;4.468;2023-03-03T13:18:29;10.20;;;6.63;;
22705;SDS011;11520;51.198;4.468;2023-03-03T13:21:13;8.48;;;4.60;;
22705;SDS011;11520;51.198;4.468;2023-03-03T13:26:35;12.07;;;6.17;;
22705;SDS011;11520;51.198;4.468;2023-03-03T13:31:48;8.98;;;5.35;;
22705;SDS011;11520;51.198;4.468;2023-03-03T13:42:47;10.32;;;4.75;;
22705;SDS011;11520;51.198;4.468;2023-03-03T13:45:22;8.25;;;5.30;;
22705;SDS011;11520;51.198;4.468;2023-03-03T13:50:50;8.95;;;5.20;;
22705;SDS011;11520;51.198;4.468;2023-03-03T14:07:27;10.63;;;6.10;;
22705;SDS011;11520;51.198;4.468;2023-03-03T14:10:06;11.60;;;6.25;;
22705;SDS011;11520;51.198;4.468;2023-03-03T14:12:41;10.95;;;6.05;;
22705;SDS011;11520;51.198;4.468;2023-03-03T14:15:15;12.02;;;6.40;;
22705;SDS011;11520;51.198;4.468;2023-03-03T14:20:23;12.55;;;6.05;;
22705;SDS011;11520;51.198;4.468;2023-03-03T14:23:07;12.07;;;5.90;;
22705;SDS011;11520;51.198;4.468;2023-03-03T14:25:58;10.77;;;5.75;;
22705;SDS011;11520;51.198;4.468;2023-03-03T14:28:41;11.43;;;5.53;;
22705;SDS011;11520;51.198;4.468;2023-03-03T14:36:35;11.95;;;5.80;;
22705;SDS011;11520;51.198;4.468;2023-03-03T14:42:11;11.20;;;6.30;;
22705;SDS011;11520;51.198;4.468;2023-03-03T14:45:01;14.13;;;5.80;;
22705;SDS011;11520;51.198;4.468;2023-03-03T14:47:28;10.35;;;5.47;;
22705;SDS011;11520;51.198;4.468;2023-03-03T14:49:55;10.93;;;5.88;;
22705;SDS011;11520;51.198;4.468;2023-03-03T14:52:28;9.02;;;5.40;;
22705;SDS011;11520;51.198;4.468;2023-03-03T14:54:57;13.85;;;5.63;;
22705;SDS011;11520;51.198;4.468;2023-03-03T15:00:23;9.63;;;5.32;;
22705;SDS011;11520;51.198;4.468;2023-03-03T15:05:50;12.13;;;5.40;;
22705;SDS011;11520;51.198;4.468;2023-03-03T15:08:34;10.40;;;5.55;;
22705;SDS011;11520;51.198;4.468;2023-03-03T15:11:17;9.77;;;5.00;;
22705;SDS011;11520;51.198;4.468;2023-03-03T15:13:58;10.35;;;4.88;;
22705;SDS011;11520;51.198;4.468;2023-03-03T15:16:36;8.95;;;5.13;;
22705;SDS011;11520;51.198;4.468;2023-03-03T15:21:56;10.60;;;4.50;;
22705;SDS011;11520;51.198;4.468;2023-03-03T15:29:59;8.93;;;5.10;;
22705;SDS011;11520;51.198;4.468;2023-03-03T15:41:30;9.82;;;4.55;;
22705;SDS011;11520;51.198;4.468;2023-03-03T15:44:11;6.97;;;3.70;;
22705;SDS011;11520;51.198;4.468;2023-03-03T15:47:12;6.53;;;3.63;;
22705;SDS011;11520;51.198;4.468;2023-03-03T16:04:03;5.32;;;3.35;;
22705;SDS011;11520;51.198;4.468;2023-03-03T16:11:54;6.10;;;3.28;;
22705;SDS011;11520;51.198;4.468;2023-03-03T16:14:44;6.53;;;3.10;;
22705;SDS011;11520;51.198;4.468;2023-03-03T16:25:57;5.90;;;3.80;;
22705;SDS011;11520;51.198;4.468;2023-03-03T16:31:19;6.40;;;4.00;;
22705;SDS011;11520;51.198;4.468;2023-03-03T16:44:56;9.07;;;3.40;;
22705;SDS011;11520;51.198;4.468;2023-03-03T17:01:31;6.85;;;3.15;;
22705;SDS011;11520;51.198;4.468;2023-03-03T17:04:30;7.32;;;2.92;;
22705;SDS011;11520;51.198;4.468;2023-03-03T17:07:02;3.65;;;2.20;;
22705;SDS011;11520;51.198;4.468;2023-03-03T17:18:18;5.43;;;2.40;;
22705;SDS011;11520;51.198;4.468;2023-03-03T17:21:19;3.42;;;2.22;;
22705;SDS011;11520;51.198;4.468;2023-03-03T17:24:46;5.55;;;2.70;;
22705;SDS011;11520;51.198;4.468;2023-03-03T17:27:07;4.55;;;2.78;;
22705;SDS011;11520;51.198;4.468;2023-03-03T17:32:20;5.72;;;2.72;;
22705;SDS011;11520;51.198;4.468;2023-03-03T17:38:23;3.63;;;2.22;;
22705;SDS011;11520;51.198;4.468;2023-03-03T17:41:53;8.23;;;2.33;;
22705;SDS011;11520;51.198;4.468;2023-03-03T17:44:09;4.57;;;2.08;;
22705;SDS011;11520;51.198;4.468;2023-03-03T18:01:21;8.10;;;2.58;;
22705;SDS011;11520;51.198;4.468;2023-03-03T18:04:12;8.63;;;2.55;;
22705;SDS011;11520;51.198;4.468;2023-03-03T18:17:59;5.60;;;2.70;;
22705;SDS011;11520;51.198;4.468;2023-03-03T18:23:39;7.72;;;2.63;;
22705;SDS011;11520;51.198;4.468;2023-03-03T18:39:40;6.25;;;3.25;;
22705;SDS011;11520;51.198;4.468;2023-03-03T18:44:53;7.25;;;3.08;;
22705;SDS011;11520;51.198;4.468;2023-03-03T18:47:18;6.32;;;3.80;;
22705;SDS011;11520;51.198;4.468;2023-03-03T19:00:51;7.47;;;3.88;;
22705;SDS011;11520;51.198;4.468;2023-03-03T19:03:24;8.45;;;3.83;;
22705;SDS011;11520;51.198;4.468;2023-03-03T19:06:01;4.47;;;3.58;;
22705;SDS011;11520;51.198;4.468;2023-03-03T19:08:43;6.28;;;4.15;;
22705;SDS011;11520;51.198;4.468;2023-03-03T19:14:39;5.78;;;4.03;;
22705;SDS011;11520;51.198;4.468;2023-03-03T19:20:12;5.30;;;4.25;;
22705;SDS011;11520;51.198;4.468;2023-03-03T19:23:04;9.70;;;4.75;;
22705;SDS011;11520;51.198;4.468;2023-03-03T19:25:38;7.68;;;4.65;;
22705;SDS011;11520;51.198;4.468;2023-03-03T19:30:57;10.82;;;5.32;;
22705;SDS011;11520;51.198;4.468;2023-03-03T19:36:23;8.15;;;5.07;;
22705;SDS011;11520;51.198;4.468;2023-03-03T19:47:27;10.38;;;6.40;;
22705;SDS011;11520;51.198;4.468;2023-03-03T19:52:40;9.93;;;6.85;;
22705;SDS011;11520;51.198;4.468;2023-03-03T19:55:24;7.77;;;6.30;;
22705;SDS011;11520;51.198;4.468;2023-03-03T20:05:55;10.55;;;6.72;;
22705;SDS011;11520;51.198;4.468;2023-03-03T20:11:14;9.85;;;6.63;;
22705;SDS011;11520;51.198;4.468;2023-03-03T20:16:48;10.10;;;7.45;;
22705;SDS011;11520;51.198;4.468;2023-03-03T20:19:20;9.13;;;7.65;;
22705;SDS011;11520;51.198;4.468;2023-03-03T20:25:26;9.23;;;8.30;;
22705;SDS011;11520;51.198;4.468;2023-03-03T20:31:08;13.63;;;9.27;;
22705;SDS011;11520;51.198;4.468;2023-03-03T20:39:39;12.27;;;9.05;;
22705;SDS011;11520;51.198;4.468;2023-03-03T20:51:24;12.80;;;8.80;;
22705;SDS011;11520;51.198;4.468;2023-03-03T20:54:19;17.77;;;9.57;;
22705;SDS011;11520;51.198;4.468;2023-03-03T21:04:41;12.93;;;8.93;;
22705;SDS011;11520;51.198;4.468;2023-03-03T21:07:06;12.85;;;8.95;;
22705;SDS011;11520;51.198;4.468;2023-03-03T21:09:35;11.77;;;9.30;;
22705;SDS011;11520;51.198;4.468;2023-03-03T21:12:36;10.98;;;8.18;;
22705;SDS011;11520;51.198;4.468;2023-03-03T21:15:00;12.55;;;7.93;;
22705;SDS011;11520;51.198;4.468;2023-03-03T21:17:35;15.25;;;8.05;;
22705;SDS011;11520;51.198;4.468;2023-03-03T21:22:49;12.20;;;7.07;;
22705;SDS011;11520;51.198;4.468;2023-03-03T21:39:37;11.05;;;6.50;;
22705;SDS011;11520;51.198;4.468;2023-03-03T21:42:08;12.80;;;6.50;;
22705;SDS011;11520;51.198;4.468;2023-03-03T21:47:09;12.70;;;5.97;;
22705;SDS011;11520;51.198;4.468;2023-03-03T21:50:01;11.07;;;5.95;;
22705;SDS011;11520;51.198;4.468;2023-03-03T21:52:27;13.15;;;5.85;;
22705;SDS011;11520;51.198;4.468;2023-03-03T21:54:54;11.23;;;6.18;;
22705;SDS011;11520;51.198;4.468;2023-03-03T21:57:19;11.35;;;6.20;;
22705;SDS011;11520;51.198;4.468;2023-03-03T21:59:45;10.93;;;6.05;;
22705;SDS011;11520;51.198;4.468;2023-03-03T22:02:11;14.35;;;6.53;;
22705;SDS011;11520;51.198;4.468;2023-03-03T22:04:37;14.85;;;5.60;;
22705;SDS011;11520;51.198;4.468;2023-03-03T22:07:06;13.05;;;5.75;;
22705;SDS011;11520;51.198;4.468;2023-03-03T22:09:33;8.75;;;4.47;;
22705;SDS011;11520;51.198;4.468;2023-03-03T22:12:00;15.73;;;4.78;;
22705;SDS011;11520;51.198;4.468;2023-03-03T22:14:26;14.60;;;5.38;;
22705;SDS011;11520;51.198;4.468;2023-03-03T22:16:51;12.68;;;5.05;;
22705;SDS011;11520;51.198;4.468;2023-03-03T22:19:18;7.80;;;4.90;;
22705;SDS011;11520;51.198;4.468;2023-03-03T22:21:44;12.80;;;5.03;;
22705;SDS011;11520;51.198;4.468;2023-03-03T22:24:11;10.82;;;4.75;;
22705;SDS011;11520;51.198;4.468;2023-03-03T22:26:37;18.40;;;5.25;;
22705;SDS011;11520;51.198;4.468;2023-03-03T22:29:03;9.75;;;4.47;;
22705;SDS011;11520;51.198;4.468;2023-03-03T22:31:30;15.38;;;4.75;;
22705;SDS011;11520;51.198;4.468;2023-03-03T22:33:57;11.18;;;4.20;;
22705;SDS011;11520;51.198;4.468;2023-03-03T22:36:23;14.60;;;4.05;;
22705;SDS011;11520;51.198;4.468;2023-03-03T22:38:50;10.35;;;4.35;;
22705;SDS011;11520;51.198;4.468;2023-03-03T22:41:18;12.25;;;4.80;;
22705;SDS011;11520;51.198;4.468;2023-03-03T22:43:44;18.83;;;6.53;;
22705;SDS011;11520;51.198;4.468;2023-03-03T22:46:09;15.70;;;6.63;;
22705;SDS011;11520;51.198;4.468;2023-03-03T22:48:36;16.58;;;6.45;;